sensor_id;sensor_type;location;lat;lon;timestamp;P1;durP1;ratioP1;P2;durP2;ratioP2
18720;SDS011;9489;50.948;3.114;2022-11-20T00:00:37;47.70;;;31.92;;
18720;SDS011;9489;50.948;3.114;2022-11-20T00:03:03;45.33;;;27.75;;
18720;SDS011;9489;50.948;3.114;2022-11-20T00:05:29;49.08;;;31.52;;
18720;SDS011;9489;50.948;3.114;2022-11-20T00:07:58;47.90;;;30.58;;
18720;SDS011;9489;50.948;3.114;2022-11-20T00:10:23;44.65;;;28.63;;
18720;SDS011;9489;50.948;3.114;2022-11-20T00:12:49;48.88;;;30.63;;
18720;SDS011;9489;50.948;3.114;2022-11-20T00:15:14;44.13;;;28.27;;
18720;SDS011;9489;50.948;3.114;2022-11-20T00:17:40;50.47;;;31.73;;
18720;SDS011;9489;50.948;3.114;2022-11-20T00:20:05;47.88;;;32.28;;
18720;SDS011;9489;50.948;3.114;2022-11-20T00:22:31;49.00;;;31.48;;
18720;SDS011;9489;50.948;3.114;2022-11-20T00:24:57;49.05;;;31.10;;
18720;SDS011;9489;50.948;3.114;2022-11-20T00:27:22;46.30;;;30.92;;
18720;SDS011;9489;50.948;3.114;2022-11-20T00:29:48;40.70;;;27.77;;
18720;SDS011;9489;50.948;3.114;2022-11-20T00:32:14;48.28;;;29.65;;
18720;SDS011;9489;50.948;3.114;2022-11-20T00:34:39;53.55;;;34.47;;
18720;SDS011;9489;50.948;3.114;2022-11-20T00:37:05;58.63;;;35.58;;
18720;SDS011;9489;50.948;3.114;2022-11-20T00:39:30;56.35;;;34.92;;
18720;SDS011;9489;50.948;3.114;2022-11-20T00:41:56;59.45;;;34.45;;
18720;SDS011;9489;50.948;3.114;2022-11-20T00:44:21;60.83;;;33.50;;
18720;SDS011;9489;50.948;3.114;2022-11-20T00:46:47;54.08;;;32.85;;
18720;SDS011;9489;50.948;3.114;2022-11-20T00:49:13;55.20;;;32.10;;
18720;SDS011;9489;50.948;3.114;2022-11-20T00:51:38;55.88;;;33.55;;
18720;SDS011;9489;50.948;3.114;2022-11-20T00:54:04;58.33;;;33.75;;
18720;SDS011;9489;50.948;3.114;2022-11-20T00:56:29;57.45;;;33.45;;
18720;SDS011;9489;50.948;3.114;2022-11-20T00:58:55;63.88;;;36.05;;
18720;SDS011;9489;50.948;3.114;2022-11-20T01:01:24;74.75;;;38.75;;
18720;SDS011;9489;50.948;3.114;2022-11-20T01:03:52;53.38;;;34.42;;
18720;SDS011;9489;50.948;3.114;2022-11-20T01:08:45;62.20;;;34.08;;
18720;SDS011;9489;50.948;3.114;2022-11-20T01:11:12;61.92;;;34.53;;
18720;SDS011;9489;50.948;3.114;2022-11-20T01:13:40;63.67;;;36.80;;
18720;SDS011;9489;50.948;3.114;2022-11-20T01:16:10;70.57;;;39.45;;
18720;SDS011;9489;50.948;3.114;2022-11-20T01:18:43;63.30;;;34.70;;
18720;SDS011;9489;50.948;3.114;2022-11-20T01:21:11;73.53;;;37.60;;
18720;SDS011;9489;50.948;3.114;2022-11-20T01:23:48;59.35;;;34.10;;
18720;SDS011;9489;50.948;3.114;2022-11-20T01:26:16;67.72;;;36.63;;
18720;SDS011;9489;50.948;3.114;2022-11-20T01:28:43;72.15;;;36.95;;
18720;SDS011;9489;50.948;3.114;2022-11-20T01:31:19;73.68;;;40.50;;
18720;SDS011;9489;50.948;3.114;2022-11-20T01:33:47;66.93;;;38.20;;
18720;SDS011;9489;50.948;3.114;2022-11-20T01:36:15;76.20;;;38.17;;
18720;SDS011;9489;50.948;3.114;2022-11-20T01:38:42;65.22;;;37.33;;
18720;SDS011;9489;50.948;3.114;2022-11-20T01:41:09;71.82;;;38.53;;
18720;SDS011;9489;50.948;3.114;2022-11-20T01:43:36;65.65;;;38.28;;
18720;SDS011;9489;50.948;3.114;2022-11-20T01:48:44;74.15;;;40.42;;
18720;SDS011;9489;50.948;3.114;2022-11-20T01:52:02;76.25;;;39.25;;
18720;SDS011;9489;50.948;3.114;2022-11-20T01:54:16;71.18;;;39.35;;
18720;SDS011;9489;50.948;3.114;2022-11-20T01:56:44;83.63;;;42.97;;
18720;SDS011;9489;50.948;3.114;2022-11-20T01:59:13;76.47;;;40.90;;
18720;SDS011;9489;50.948;3.114;2022-11-20T02:01:42;81.03;;;41.28;;
18720;SDS011;9489;50.948;3.114;2022-11-20T02:04:08;86.95;;;43.25;;
18720;SDS011;9489;50.948;3.114;2022-11-20T02:06:46;80.45;;;44.03;;
18720;SDS011;9489;50.948;3.114;2022-11-20T02:09:14;77.40;;;40.53;;
18720;SDS011;9489;50.948;3.114;2022-11-20T02:11:42;82.38;;;41.80;;
18720;SDS011;9489;50.948;3.114;2022-11-20T02:14:07;78.18;;;41.13;;
18720;SDS011;9489;50.948;3.114;2022-11-20T02:16:39;84.90;;;42.92;;
18720;SDS011;9489;50.948;3.114;2022-11-20T02:19:13;86.00;;;45.08;;
18720;SDS011;9489;50.948;3.114;2022-11-20T02:24:26;87.18;;;43.60;;
18720;SDS011;9489;50.948;3.114;2022-11-20T02:29:27;93.65;;;43.60;;
18720;SDS011;9489;50.948;3.114;2022-11-20T02:31:58;94.63;;;45.78;;
18720;SDS011;9489;50.948;3.114;2022-11-20T02:34:26;89.50;;;47.20;;
18720;SDS011;9489;50.948;3.114;2022-11-20T02:36:52;98.88;;;45.92;;
18720;SDS011;9489;50.948;3.114;2022-11-20T02:39:18;95.43;;;45.88;;
18720;SDS011;9489;50.948;3.114;2022-11-20T02:41:45;99.22;;;48.80;;
18720;SDS011;9489;50.948;3.114;2022-11-20T02:44:11;95.43;;;46.80;;
18720;SDS011;9489;50.948;3.114;2022-11-20T02:46:37;111.10;;;48.88;;
18720;SDS011;9489;50.948;3.114;2022-11-20T02:49:03;96.15;;;46.53;;
18720;SDS011;9489;50.948;3.114;2022-11-20T02:51:30;92.80;;;46.33;;
18720;SDS011;9489;50.948;3.114;2022-11-20T02:53:56;100.32;;;47.53;;
18720;SDS011;9489;50.948;3.114;2022-11-20T02:56:21;98.18;;;46.88;;
18720;SDS011;9489;50.948;3.114;2022-11-20T02:58:47;84.93;;;43.20;;
18720;SDS011;9489;50.948;3.114;2022-11-20T03:01:12;106.10;;;49.63;;
18720;SDS011;9489;50.948;3.114;2022-11-20T03:03:38;93.38;;;44.33;;
18720;SDS011;9489;50.948;3.114;2022-11-20T03:06:04;91.95;;;44.80;;
18720;SDS011;9489;50.948;3.114;2022-11-20T03:08:30;105.03;;;48.13;;
18720;SDS011;9489;50.948;3.114;2022-11-20T03:10:55;106.88;;;48.70;;
18720;SDS011;9489;50.948;3.114;2022-11-20T03:13:21;100.72;;;46.38;;
18720;SDS011;9489;50.948;3.114;2022-11-20T03:15:46;108.72;;;49.03;;
18720;SDS011;9489;50.948;3.114;2022-11-20T03:18:12;97.20;;;44.78;;
18720;SDS011;9489;50.948;3.114;2022-11-20T03:20:38;91.93;;;44.95;;
18720;SDS011;9489;50.948;3.114;2022-11-20T03:23:04;96.50;;;45.15;;
18720;SDS011;9489;50.948;3.114;2022-11-20T03:25:30;104.53;;;46.83;;
18720;SDS011;9489;50.948;3.114;2022-11-20T03:27:55;98.20;;;45.97;;
18720;SDS011;9489;50.948;3.114;2022-11-20T03:30:21;97.78;;;46.28;;
18720;SDS011;9489;50.948;3.114;2022-11-20T03:32:47;98.65;;;45.35;;
18720;SDS011;9489;50.948;3.114;2022-11-20T03:35:13;98.38;;;44.20;;
18720;SDS011;9489;50.948;3.114;2022-11-20T03:37:38;94.47;;;45.28;;
18720;SDS011;9489;50.948;3.114;2022-11-20T03:40:04;90.43;;;45.47;;
18720;SDS011;9489;50.948;3.114;2022-11-20T03:42:30;100.10;;;44.58;;
18720;SDS011;9489;50.948;3.114;2022-11-20T03:45:15;91.35;;;42.70;;
18720;SDS011;9489;50.948;3.114;2022-11-20T03:47:42;97.03;;;46.08;;
18720;SDS011;9489;50.948;3.114;2022-11-20T03:50:09;91.13;;;44.85;;
18720;SDS011;9489;50.948;3.114;2022-11-20T03:52:37;86.13;;;41.50;;
18720;SDS011;9489;50.948;3.114;2022-11-20T03:55:03;87.82;;;42.72;;
18720;SDS011;9489;50.948;3.114;2022-11-20T03:57:30;90.75;;;42.05;;
18720;SDS011;9489;50.948;3.114;2022-11-20T03:59:56;90.40;;;41.70;;
18720;SDS011;9489;50.948;3.114;2022-11-20T04:02:22;90.05;;;42.70;;
18720;SDS011;9489;50.948;3.114;2022-11-20T04:04:47;89.55;;;43.47;;
18720;SDS011;9489;50.948;3.114;2022-11-20T04:07:13;86.88;;;42.15;;
18720;SDS011;9489;50.948;3.114;2022-11-20T04:09:38;96.28;;;42.90;;
18720;SDS011;9489;50.948;3.114;2022-11-20T04:12:04;88.97;;;42.72;;
18720;SDS011;9489;50.948;3.114;2022-11-20T04:14:30;92.05;;;42.78;;
18720;SDS011;9489;50.948;3.114;2022-11-20T04:16:55;91.60;;;43.22;;
18720;SDS011;9489;50.948;3.114;2022-11-20T04:19:21;88.65;;;43.25;;
18720;SDS011;9489;50.948;3.114;2022-11-20T04:21:46;95.10;;;45.17;;
18720;SDS011;9489;50.948;3.114;2022-11-20T04:24:13;94.55;;;43.88;;
18720;SDS011;9489;50.948;3.114;2022-11-20T04:26:39;91.97;;;42.42;;
18720;SDS011;9489;50.948;3.114;2022-11-20T04:29:05;97.53;;;44.10;;
18720;SDS011;9489;50.948;3.114;2022-11-20T04:31:32;91.45;;;42.17;;
18720;SDS011;9489;50.948;3.114;2022-11-20T04:33:59;95.32;;;45.03;;
18720;SDS011;9489;50.948;3.114;2022-11-20T04:36:28;100.78;;;45.95;;
18720;SDS011;9489;50.948;3.114;2022-11-20T04:38:55;93.43;;;42.42;;
18720;SDS011;9489;50.948;3.114;2022-11-20T04:41:26;105.00;;;44.78;;
18720;SDS011;9489;50.948;3.114;2022-11-20T04:43:54;94.65;;;42.50;;
18720;SDS011;9489;50.948;3.114;2022-11-20T04:46:24;101.60;;;43.05;;
18720;SDS011;9489;50.948;3.114;2022-11-20T04:48:52;89.57;;;41.70;;
18720;SDS011;9489;50.948;3.114;2022-11-20T04:51:17;91.78;;;41.00;;
18720;SDS011;9489;50.948;3.114;2022-11-20T04:53:43;90.18;;;41.83;;
18720;SDS011;9489;50.948;3.114;2022-11-20T04:56:09;93.68;;;41.22;;
18720;SDS011;9489;50.948;3.114;2022-11-20T04:58:36;90.45;;;40.30;;
18720;SDS011;9489;50.948;3.114;2022-11-20T05:03:28;91.22;;;42.22;;
18720;SDS011;9489;50.948;3.114;2022-11-20T05:05:54;94.10;;;40.75;;
18720;SDS011;9489;50.948;3.114;2022-11-20T05:08:19;92.25;;;39.72;;
18720;SDS011;9489;50.948;3.114;2022-11-20T05:10:45;88.78;;;39.38;;
18720;SDS011;9489;50.948;3.114;2022-11-20T05:13:10;89.72;;;39.38;;
18720;SDS011;9489;50.948;3.114;2022-11-20T05:15:36;88.38;;;37.85;;
18720;SDS011;9489;50.948;3.114;2022-11-20T05:18:01;81.40;;;37.50;;
18720;SDS011;9489;50.948;3.114;2022-11-20T05:20:27;92.72;;;39.47;;
18720;SDS011;9489;50.948;3.114;2022-11-20T05:22:56;83.22;;;39.00;;
18720;SDS011;9489;50.948;3.114;2022-11-20T05:25:22;87.07;;;38.65;;
18720;SDS011;9489;50.948;3.114;2022-11-20T05:27:48;81.93;;;37.78;;
18720;SDS011;9489;50.948;3.114;2022-11-20T05:30:13;99.75;;;38.85;;
18720;SDS011;9489;50.948;3.114;2022-11-20T05:32:39;92.38;;;38.15;;
18720;SDS011;9489;50.948;3.114;2022-11-20T05:35:05;85.65;;;38.78;;
18720;SDS011;9489;50.948;3.114;2022-11-20T05:37:31;82.55;;;35.25;;
18720;SDS011;9489;50.948;3.114;2022-11-20T05:39:57;88.70;;;38.17;;
18720;SDS011;9489;50.948;3.114;2022-11-20T05:42:23;81.63;;;35.92;;
18720;SDS011;9489;50.948;3.114;2022-11-20T05:44:58;78.10;;;36.20;;
18720;SDS011;9489;50.948;3.114;2022-11-20T05:47:25;76.45;;;33.50;;
18720;SDS011;9489;50.948;3.114;2022-11-20T05:49:52;71.72;;;33.25;;
18720;SDS011;9489;50.948;3.114;2022-11-20T05:52:17;79.60;;;35.33;;
18720;SDS011;9489;50.948;3.114;2022-11-20T05:54:43;71.78;;;35.63;;
18720;SDS011;9489;50.948;3.114;2022-11-20T05:57:08;77.55;;;35.22;;
18720;SDS011;9489;50.948;3.114;2022-11-20T05:59:34;75.13;;;34.95;;
18720;SDS011;9489;50.948;3.114;2022-11-20T06:02:00;76.43;;;34.10;;
18720;SDS011;9489;50.948;3.114;2022-11-20T06:04:25;76.25;;;33.92;;
18720;SDS011;9489;50.948;3.114;2022-11-20T06:06:51;73.70;;;35.10;;
18720;SDS011;9489;50.948;3.114;2022-11-20T06:09:16;72.88;;;32.40;;
18720;SDS011;9489;50.948;3.114;2022-11-20T06:11:42;71.60;;;34.05;;
18720;SDS011;9489;50.948;3.114;2022-11-20T06:14:07;77.05;;;35.03;;
18720;SDS011;9489;50.948;3.114;2022-11-20T06:16:33;74.72;;;33.45;;
18720;SDS011;9489;50.948;3.114;2022-11-20T06:18:59;72.28;;;33.08;;
18720;SDS011;9489;50.948;3.114;2022-11-20T06:21:24;75.80;;;34.75;;
18720;SDS011;9489;50.948;3.114;2022-11-20T06:23:51;73.78;;;32.58;;
18720;SDS011;9489;50.948;3.114;2022-11-20T06:26:19;75.75;;;34.10;;
18720;SDS011;9489;50.948;3.114;2022-11-20T06:28:46;67.05;;;33.05;;
18720;SDS011;9489;50.948;3.114;2022-11-20T06:31:12;86.90;;;36.95;;
18720;SDS011;9489;50.948;3.114;2022-11-20T06:33:39;74.00;;;34.45;;
18720;SDS011;9489;50.948;3.114;2022-11-20T06:36:06;67.38;;;32.60;;
18720;SDS011;9489;50.948;3.114;2022-11-20T06:38:31;76.28;;;35.70;;
18720;SDS011;9489;50.948;3.114;2022-11-20T06:40:57;83.90;;;35.25;;
18720;SDS011;9489;50.948;3.114;2022-11-20T06:43:23;76.38;;;34.88;;
18720;SDS011;9489;50.948;3.114;2022-11-20T06:45:53;89.53;;;43.15;;
18720;SDS011;9489;50.948;3.114;2022-11-20T06:48:19;77.88;;;36.83;;
18720;SDS011;9489;50.948;3.114;2022-11-20T06:50:50;78.13;;;35.05;;
18720;SDS011;9489;50.948;3.114;2022-11-20T06:53:18;78.55;;;35.17;;
18720;SDS011;9489;50.948;3.114;2022-11-20T06:55:45;77.13;;;33.45;;
18720;SDS011;9489;50.948;3.114;2022-11-20T06:58:12;76.00;;;33.85;;
18720;SDS011;9489;50.948;3.114;2022-11-20T07:00:39;70.55;;;33.33;;
18720;SDS011;9489;50.948;3.114;2022-11-20T07:03:06;73.00;;;33.78;;
18720;SDS011;9489;50.948;3.114;2022-11-20T07:05:39;76.88;;;34.10;;
18720;SDS011;9489;50.948;3.114;2022-11-20T07:08:05;82.43;;;34.90;;
18720;SDS011;9489;50.948;3.114;2022-11-20T07:10:31;67.65;;;30.77;;
18720;SDS011;9489;50.948;3.114;2022-11-20T07:12:57;71.22;;;33.35;;
18720;SDS011;9489;50.948;3.114;2022-11-20T07:15:24;76.20;;;33.58;;
18720;SDS011;9489;50.948;3.114;2022-11-20T07:17:51;73.55;;;31.25;;
18720;SDS011;9489;50.948;3.114;2022-11-20T07:20:17;72.65;;;31.67;;
18720;SDS011;9489;50.948;3.114;2022-11-20T07:22:43;68.55;;;32.88;;
18720;SDS011;9489;50.948;3.114;2022-11-20T07:25:09;73.65;;;32.90;;
18720;SDS011;9489;50.948;3.114;2022-11-20T07:27:34;72.13;;;32.22;;
18720;SDS011;9489;50.948;3.114;2022-11-20T07:30:01;70.50;;;30.52;;
18720;SDS011;9489;50.948;3.114;2022-11-20T07:32:28;74.18;;;32.90;;
18720;SDS011;9489;50.948;3.114;2022-11-20T07:34:53;68.20;;;32.03;;
18720;SDS011;9489;50.948;3.114;2022-11-20T07:37:19;78.05;;;33.10;;
18720;SDS011;9489;50.948;3.114;2022-11-20T07:39:44;68.18;;;32.10;;
18720;SDS011;9489;50.948;3.114;2022-11-20T07:42:10;70.55;;;32.17;;
18720;SDS011;9489;50.948;3.114;2022-11-20T07:44:37;66.90;;;30.48;;
18720;SDS011;9489;50.948;3.114;2022-11-20T07:47:03;70.35;;;33.47;;
18720;SDS011;9489;50.948;3.114;2022-11-20T07:49:29;70.28;;;32.55;;
18720;SDS011;9489;50.948;3.114;2022-11-20T07:51:55;71.78;;;33.40;;
18720;SDS011;9489;50.948;3.114;2022-11-20T07:54:21;63.03;;;32.45;;
18720;SDS011;9489;50.948;3.114;2022-11-20T07:56:47;70.30;;;32.85;;
18720;SDS011;9489;50.948;3.114;2022-11-20T07:59:13;69.50;;;34.63;;
18720;SDS011;9489;50.948;3.114;2022-11-20T08:01:40;68.63;;;34.13;;
18720;SDS011;9489;50.948;3.114;2022-11-20T08:04:06;63.67;;;33.00;;
18720;SDS011;9489;50.948;3.114;2022-11-20T08:06:32;63.35;;;32.72;;
18720;SDS011;9489;50.948;3.114;2022-11-20T08:08:58;65.35;;;31.73;;
18720;SDS011;9489;50.948;3.114;2022-11-20T08:11:24;65.90;;;29.83;;
18720;SDS011;9489;50.948;3.114;2022-11-20T08:14:08;62.88;;;30.85;;
18720;SDS011;9489;50.948;3.114;2022-11-20T08:16:36;60.78;;;30.23;;
18720;SDS011;9489;50.948;3.114;2022-11-20T08:19:06;73.53;;;33.13;;
18720;SDS011;9489;50.948;3.114;2022-11-20T08:21:32;62.10;;;29.25;;
18720;SDS011;9489;50.948;3.114;2022-11-20T08:23:58;54.03;;;30.70;;
18720;SDS011;9489;50.948;3.114;2022-11-20T08:26:24;60.20;;;30.17;;
18720;SDS011;9489;50.948;3.114;2022-11-20T08:28:54;55.15;;;29.40;;
18720;SDS011;9489;50.948;3.114;2022-11-20T08:31:21;57.08;;;31.83;;
18720;SDS011;9489;50.948;3.114;2022-11-20T08:33:48;56.25;;;29.60;;
18720;SDS011;9489;50.948;3.114;2022-11-20T08:36:13;53.35;;;27.88;;
18720;SDS011;9489;50.948;3.114;2022-11-20T08:38:39;50.85;;;28.85;;
18720;SDS011;9489;50.948;3.114;2022-11-20T08:41:04;46.75;;;27.77;;
18720;SDS011;9489;50.948;3.114;2022-11-20T08:44:01;48.72;;;26.88;;
18720;SDS011;9489;50.948;3.114;2022-11-20T08:46:32;49.88;;;28.10;;
18720;SDS011;9489;50.948;3.114;2022-11-20T08:49:00;43.97;;;25.95;;
18720;SDS011;9489;50.948;3.114;2022-11-20T08:51:25;49.28;;;26.90;;
18720;SDS011;9489;50.948;3.114;2022-11-20T08:53:51;45.85;;;26.63;;
18720;SDS011;9489;50.948;3.114;2022-11-20T08:56:17;46.30;;;26.10;;
18720;SDS011;9489;50.948;3.114;2022-11-20T08:58:42;44.13;;;26.45;;
18720;SDS011;9489;50.948;3.114;2022-11-20T09:01:08;40.17;;;24.90;;
18720;SDS011;9489;50.948;3.114;2022-11-20T09:03:34;43.90;;;23.95;;
18720;SDS011;9489;50.948;3.114;2022-11-20T09:06:00;33.38;;;21.77;;
18720;SDS011;9489;50.948;3.114;2022-11-20T09:08:28;35.03;;;22.45;;
18720;SDS011;9489;50.948;3.114;2022-11-20T09:10:54;35.17;;;21.17;;
18720;SDS011;9489;50.948;3.114;2022-11-20T09:13:21;31.83;;;21.00;;
18720;SDS011;9489;50.948;3.114;2022-11-20T09:15:52;29.45;;;20.73;;
18720;SDS011;9489;50.948;3.114;2022-11-20T09:18:22;28.67;;;19.70;;
18720;SDS011;9489;50.948;3.114;2022-11-20T09:20:49;29.63;;;18.70;;
18720;SDS011;9489;50.948;3.114;2022-11-20T09:23:15;29.55;;;17.92;;
18720;SDS011;9489;50.948;3.114;2022-11-20T09:25:40;22.20;;;16.10;;
18720;SDS011;9489;50.948;3.114;2022-11-20T09:28:06;19.75;;;15.02;;
18720;SDS011;9489;50.948;3.114;2022-11-20T09:30:32;19.65;;;13.32;;
18720;SDS011;9489;50.948;3.114;2022-11-20T09:32:58;17.83;;;12.65;;
18720;SDS011;9489;50.948;3.114;2022-11-20T09:35:23;13.82;;;9.90;;
18720;SDS011;9489;50.948;3.114;2022-11-20T09:37:49;14.98;;;9.82;;
18720;SDS011;9489;50.948;3.114;2022-11-20T09:40:24;12.48;;;8.70;;
18720;SDS011;9489;50.948;3.114;2022-11-20T09:46:07;11.02;;;7.05;;
18720;SDS011;9489;50.948;3.114;2022-11-20T09:54:05;8.32;;;4.93;;
18720;SDS011;9489;50.948;3.114;2022-11-20T09:56:39;8.95;;;4.70;;
18720;SDS011;9489;50.948;3.114;2022-11-20T09:59:13;8.15;;;4.70;;
18720;SDS011;9489;50.948;3.114;2022-11-20T10:01:48;6.15;;;4.78;;
18720;SDS011;9489;50.948;3.114;2022-11-20T10:04:18;6.68;;;4.30;;
18720;SDS011;9489;50.948;3.114;2022-11-20T10:09:35;4.97;;;4.32;;
18720;SDS011;9489;50.948;3.114;2022-11-20T10:25:22;4.80;;;3.70;;
18720;SDS011;9489;50.948;3.114;2022-11-20T10:30:26;5.82;;;3.70;;
18720;SDS011;9489;50.948;3.114;2022-11-20T10:32:54;6.88;;;4.03;;
18720;SDS011;9489;50.948;3.114;2022-11-20T10:35:42;5.53;;;3.47;;
18720;SDS011;9489;50.948;3.114;2022-11-20T10:38:27;6.10;;;3.72;;
18720;SDS011;9489;50.948;3.114;2022-11-20T10:41:01;4.13;;;3.50;;
18720;SDS011;9489;50.948;3.114;2022-11-20T10:43:46;7.07;;;4.45;;
18720;SDS011;9489;50.948;3.114;2022-11-20T10:46:17;6.05;;;4.30;;
18720;SDS011;9489;50.948;3.114;2022-11-20T10:48:45;6.25;;;4.13;;
18720;SDS011;9489;50.948;3.114;2022-11-20T10:56:52;5.57;;;4.65;;
18720;SDS011;9489;50.948;3.114;2022-11-20T11:02:43;7.85;;;4.97;;
18720;SDS011;9489;50.948;3.114;2022-11-20T11:05:22;6.78;;;4.45;;
18720;SDS011;9489;50.948;3.114;2022-11-20T11:07:58;7.07;;;5.90;;
18720;SDS011;9489;50.948;3.114;2022-11-20T11:10:36;6.90;;;5.00;;
18720;SDS011;9489;50.948;3.114;2022-11-20T11:13:07;5.22;;;4.50;;
18720;SDS011;9489;50.948;3.114;2022-11-20T11:15:43;7.35;;;5.45;;
18720;SDS011;9489;50.948;3.114;2022-11-20T11:18:10;6.30;;;5.18;;
18720;SDS011;9489;50.948;3.114;2022-11-20T11:20:36;6.55;;;5.90;;
18720;SDS011;9489;50.948;3.114;2022-11-20T11:23:03;9.02;;;5.65;;
18720;SDS011;9489;50.948;3.114;2022-11-20T11:27:56;7.90;;;5.22;;
18720;SDS011;9489;50.948;3.114;2022-11-20T11:30:24;10.68;;;6.07;;
18720;SDS011;9489;50.948;3.114;2022-11-20T11:33:01;6.65;;;5.15;;
18720;SDS011;9489;50.948;3.114;2022-11-20T11:35:32;7.32;;;5.30;;
18720;SDS011;9489;50.948;3.114;2022-11-20T11:38:06;6.90;;;6.00;;
18720;SDS011;9489;50.948;3.114;2022-11-20T11:40:37;9.25;;;6.00;;
18720;SDS011;9489;50.948;3.114;2022-11-20T11:43:05;6.50;;;5.85;;
18720;SDS011;9489;50.948;3.114;2022-11-20T11:46:01;9.05;;;6.00;;
18720;SDS011;9489;50.948;3.114;2022-11-20T11:48:28;7.80;;;6.07;;
18720;SDS011;9489;50.948;3.114;2022-11-20T11:50:53;6.80;;;6.15;;
18720;SDS011;9489;50.948;3.114;2022-11-20T11:53:22;8.43;;;6.95;;
18720;SDS011;9489;50.948;3.114;2022-11-20T12:04:11;9.32;;;8.40;;
18720;SDS011;9489;50.948;3.114;2022-11-20T12:06:50;8.65;;;7.85;;
18720;SDS011;9489;50.948;3.114;2022-11-20T12:09:21;8.90;;;6.65;;
18720;SDS011;9489;50.948;3.114;2022-11-20T12:11:55;8.38;;;6.30;;
18720;SDS011;9489;50.948;3.114;2022-11-20T12:14:34;7.00;;;6.20;;
18720;SDS011;9489;50.948;3.114;2022-11-20T12:17:05;7.10;;;6.40;;
18720;SDS011;9489;50.948;3.114;2022-11-20T12:19:34;7.53;;;6.38;;
18720;SDS011;9489;50.948;3.114;2022-11-20T12:25:12;6.88;;;6.20;;
18720;SDS011;9489;50.948;3.114;2022-11-20T12:30:27;6.60;;;6.10;;
18720;SDS011;9489;50.948;3.114;2022-11-20T12:35:55;5.18;;;4.85;;
18720;SDS011;9489;50.948;3.114;2022-11-20T12:44:36;5.35;;;4.85;;
18720;SDS011;9489;50.948;3.114;2022-11-20T12:58:10;4.00;;;3.63;;
18720;SDS011;9489;50.948;3.114;2022-11-20T13:00:46;4.60;;;3.30;;
18720;SDS011;9489;50.948;3.114;2022-11-20T13:06:02;3.42;;;3.22;;
18720;SDS011;9489;50.948;3.114;2022-11-20T13:08:29;3.03;;;2.83;;
18720;SDS011;9489;50.948;3.114;2022-11-20T13:11:02;3.63;;;3.33;;
18720;SDS011;9489;50.948;3.114;2022-11-20T13:14:34;3.47;;;3.20;;
18720;SDS011;9489;50.948;3.114;2022-11-20T13:20:09;4.20;;;3.80;;
18720;SDS011;9489;50.948;3.114;2022-11-20T13:22:44;4.93;;;4.43;;
18720;SDS011;9489;50.948;3.114;2022-11-20T13:27:58;3.95;;;3.65;;
18720;SDS011;9489;50.948;3.114;2022-11-20T13:30:51;3.35;;;3.05;;
18720;SDS011;9489;50.948;3.114;2022-11-20T13:33:33;3.53;;;3.22;;
18720;SDS011;9489;50.948;3.114;2022-11-20T13:38:43;3.75;;;2.75;;
18720;SDS011;9489;50.948;3.114;2022-11-20T13:41:28;5.47;;;2.97;;
18720;SDS011;9489;50.948;3.114;2022-11-20T13:44:10;7.15;;;3.53;;
18720;SDS011;9489;50.948;3.114;2022-11-20T13:46:43;5.30;;;3.40;;
18720;SDS011;9489;50.948;3.114;2022-11-20T13:54:55;9.25;;;3.80;;
18720;SDS011;9489;50.948;3.114;2022-11-20T14:00:50;5.85;;;2.58;;
18720;SDS011;9489;50.948;3.114;2022-11-20T14:03:22;6.55;;;2.47;;
18720;SDS011;9489;50.948;3.114;2022-11-20T14:05:57;4.88;;;2.33;;
18720;SDS011;9489;50.948;3.114;2022-11-20T14:08:36;11.43;;;2.67;;
18720;SDS011;9489;50.948;3.114;2022-11-20T14:11:04;10.38;;;2.70;;
18720;SDS011;9489;50.948;3.114;2022-11-20T14:13:31;8.43;;;2.63;;
18720;SDS011;9489;50.948;3.114;2022-11-20T14:15:57;10.55;;;3.05;;
18720;SDS011;9489;50.948;3.114;2022-11-20T14:18:25;10.70;;;3.03;;
18720;SDS011;9489;50.948;3.114;2022-11-20T14:20:52;10.15;;;3.25;;
18720;SDS011;9489;50.948;3.114;2022-11-20T14:23:24;10.10;;;3.22;;
18720;SDS011;9489;50.948;3.114;2022-11-20T14:25:55;7.28;;;2.67;;
18720;SDS011;9489;50.948;3.114;2022-11-20T14:28:25;13.02;;;3.75;;
18720;SDS011;9489;50.948;3.114;2022-11-20T14:30:53;8.68;;;2.50;;
18720;SDS011;9489;50.948;3.114;2022-11-20T14:33:20;13.35;;;2.90;;
18720;SDS011;9489;50.948;3.114;2022-11-20T14:35:50;9.43;;;2.40;;
18720;SDS011;9489;50.948;3.114;2022-11-20T14:38:20;8.43;;;2.83;;
18720;SDS011;9489;50.948;3.114;2022-11-20T14:40:49;9.98;;;3.45;;
18720;SDS011;9489;50.948;3.114;2022-11-20T14:43:25;10.63;;;3.78;;
18720;SDS011;9489;50.948;3.114;2022-11-20T14:45:55;12.30;;;3.35;;
18720;SDS011;9489;50.948;3.114;2022-11-20T14:48:29;10.10;;;3.35;;
18720;SDS011;9489;50.948;3.114;2022-11-20T14:50:59;14.38;;;3.58;;
18720;SDS011;9489;50.948;3.114;2022-11-20T14:53:25;13.40;;;3.38;;
18720;SDS011;9489;50.948;3.114;2022-11-20T14:55:55;10.85;;;3.85;;
18720;SDS011;9489;50.948;3.114;2022-11-20T14:58:28;14.43;;;3.35;;
18720;SDS011;9489;50.948;3.114;2022-11-20T15:01:05;9.13;;;2.80;;
18720;SDS011;9489;50.948;3.114;2022-11-20T15:03:36;12.18;;;3.33;;
18720;SDS011;9489;50.948;3.114;2022-11-20T15:06:07;11.85;;;2.70;;
18720;SDS011;9489;50.948;3.114;2022-11-20T15:08:36;10.45;;;3.53;;
18720;SDS011;9489;50.948;3.114;2022-11-20T15:11:02;14.95;;;3.42;;
18720;SDS011;9489;50.948;3.114;2022-11-20T15:13:40;15.93;;;3.92;;
18720;SDS011;9489;50.948;3.114;2022-11-20T15:16:14;10.43;;;3.30;;
18720;SDS011;9489;50.948;3.114;2022-11-20T15:18:43;13.02;;;3.35;;
18720;SDS011;9489;50.948;3.114;2022-11-20T15:21:10;12.95;;;2.97;;
18720;SDS011;9489;50.948;3.114;2022-11-20T15:23:37;11.77;;;3.58;;
18720;SDS011;9489;50.948;3.114;2022-11-20T15:26:06;14.88;;;3.60;;
18720;SDS011;9489;50.948;3.114;2022-11-20T15:28:34;11.32;;;3.30;;
18720;SDS011;9489;50.948;3.114;2022-11-20T15:31:04;13.05;;;3.83;;
18720;SDS011;9489;50.948;3.114;2022-11-20T15:33:31;18.23;;;3.97;;
18720;SDS011;9489;50.948;3.114;2022-11-20T15:35:57;13.10;;;4.43;;
18720;SDS011;9489;50.948;3.114;2022-11-20T15:38:23;20.75;;;3.97;;
18720;SDS011;9489;50.948;3.114;2022-11-20T15:40:49;15.13;;;4.90;;
18720;SDS011;9489;50.948;3.114;2022-11-20T15:43:14;13.40;;;3.65;;
18720;SDS011;9489;50.948;3.114;2022-11-20T15:45:47;12.25;;;3.70;;
18720;SDS011;9489;50.948;3.114;2022-11-20T15:48:20;18.48;;;4.78;;
18720;SDS011;9489;50.948;3.114;2022-11-20T15:53:40;15.82;;;5.28;;
18720;SDS011;9489;50.948;3.114;2022-11-20T15:56:11;18.00;;;5.70;;
18720;SDS011;9489;50.948;3.114;2022-11-20T15:58:38;17.85;;;5.75;;
18720;SDS011;9489;50.948;3.114;2022-11-20T16:01:04;16.02;;;4.85;;
18720;SDS011;9489;50.948;3.114;2022-11-20T16:03:29;17.42;;;5.72;;
18720;SDS011;9489;50.948;3.114;2022-11-20T16:05:55;16.70;;;6.75;;
18720;SDS011;9489;50.948;3.114;2022-11-20T16:08:21;14.82;;;5.82;;
18720;SDS011;9489;50.948;3.114;2022-11-20T16:10:47;15.15;;;5.15;;
18720;SDS011;9489;50.948;3.114;2022-11-20T16:13:13;19.00;;;8.32;;
18720;SDS011;9489;50.948;3.114;2022-11-20T16:15:59;21.25;;;8.48;;
18720;SDS011;9489;50.948;3.114;2022-11-20T16:18:26;14.02;;;6.10;;
18720;SDS011;9489;50.948;3.114;2022-11-20T16:20:53;14.90;;;5.03;;
18720;SDS011;9489;50.948;3.114;2022-11-20T16:23:19;15.60;;;5.20;;
18720;SDS011;9489;50.948;3.114;2022-11-20T16:25:46;18.17;;;5.95;;
18720;SDS011;9489;50.948;3.114;2022-11-20T16:28:12;16.13;;;6.10;;
18720;SDS011;9489;50.948;3.114;2022-11-20T16:30:38;15.07;;;6.38;;
18720;SDS011;9489;50.948;3.114;2022-11-20T16:33:04;14.32;;;6.13;;
18720;SDS011;9489;50.948;3.114;2022-11-20T16:35:35;16.48;;;7.40;;
18720;SDS011;9489;50.948;3.114;2022-11-20T16:38:00;20.90;;;7.45;;